Aérodrome :







RETROUVEZ-NOUS SUR...

 
LOGIN :

S'inscrire | Disclaimer

   EN    FR    IT 

 









Légende :    VFR   VFR Marginal   IFR   IFR Intensif   IFR Très Intensif
Visi : 
Plafond : 
>= 8 km
>= 3000ft
5 à 8 km
1000 à 3000 ft
1500m à 5 km
500 à 1000 ft
800 à 1500m
200 à 500 ft
< 800m
< 200 ft
Symboles :   Orages  Brouillard  Fortes neiges  Fortes précipitations  Vent > 20 kt






- Altitude de l'aérodrome : 180 ft
- Code IATA : YZV


CYZV - Sept-Iles

DERNIER METAR :
  • 200400Z 04008KT 15SM OVC160 M01/M11 A2992 RMK AC8 SLP137

METARs EXPIRÉS :
  • 200300Z 02005KT 15SM OVC150 M01/M11 A2991 RMK AC8 SLP133
  • 200200Z 02006KT 15SM OVC150 M01/M11 A2989 RMK AC8 SLP127

TAF TAF CYZV
Valide du 20 à 00h jusqu'au 21 à 00h UTC


192339Z 2000/2024 02008KT P6SM OVC170
FM201200 02008KT P6SM SCT150 RMK NXT FCST BY 200600Z



MET'MAP, la Météo Aéronautique d'un coup d'oeil ! - Copyright ORBIFLY Décembre 2007 - Disclaimer

ORBIFLY MET'MAP TEAM :

Programmation & Développement : Alexandra Zaïnal
Conception & Développement : Baudouin d'Aumeries
Co-Programmation & Développement : Marc-Olivier Méhu
Soutien technique & logistique : Manuel Goepfert

Contact : metmap@orbifly.com




SOURCES & CREDITS :

   NOAA